sensor_id;sensor_type;location;lat;lon;timestamp;pressure;altitude;pressure_sealevel;temperature;humidity
23321;BME280;33376;51.306;4.752;2023-05-11T00:01:10;101846.81;;;13.32;100.00
23321;BME280;33376;51.306;4.752;2023-05-11T00:03:35;101871.72;;;13.31;100.00
23321;BME280;33376;51.306;4.752;2023-05-11T00:06:01;101873.44;;;13.32;100.00
23321;BME280;33376;51.306;4.752;2023-05-11T00:08:26;101892.72;;;13.37;100.00
23321;BME280;33376;51.306;4.752;2023-05-11T00:10:52;101891.06;;;13.34;100.00
23321;BME280;33376;51.306;4.752;2023-05-11T00:13:17;101908.63;;;13.38;100.00
23321;BME280;33376;51.306;4.752;2023-05-11T00:15:42;101902.34;;;13.39;100.00
23321;BME280;33376;51.306;4.752;2023-05-11T00:18:08;101907.75;;;13.38;100.00
23321;BME280;33376;51.306;4.752;2023-05-11T00:20:33;101913.25;;;13.35;100.00
23321;BME280;33376;51.306;4.752;2023-05-11T00:22:58;101909.78;;;13.33;100.00
23321;BME280;33376;51.306;4.752;2023-05-11T00:25:24;101917.50;;;13.39;100.00
23321;BME280;33376;51.306;4.752;2023-05-11T00:27:49;101921.09;;;13.38;100.00
23321;BME280;33376;51.306;4.752;2023-05-11T00:30:15;101926.25;;;13.41;100.00
23321;BME280;33376;51.306;4.752;2023-05-11T00:32:41;101926.41;;;13.38;100.00
23321;BME280;33376;51.306;4.752;2023-05-11T00:35:06;101939.47;;;13.25;100.00
23321;BME280;33376;51.306;4.752;2023-05-11T00:37:32;101956.53;;;13.21;100.00
23321;BME280;33376;51.306;4.752;2023-05-11T00:39:57;101959.06;;;13.24;100.00
23321;BME280;33376;51.306;4.752;2023-05-11T00:42:22;101968.59;;;13.28;100.00
23321;BME280;33376;51.306;4.752;2023-05-11T00:44:47;101967.69;;;13.29;100.00
23321;BME280;33376;51.306;4.752;2023-05-11T00:47:13;101973.94;;;13.28;100.00
23321;BME280;33376;51.306;4.752;2023-05-11T00:49:38;101974.16;;;13.23;100.00
23321;BME280;33376;51.306;4.752;2023-05-11T00:52:04;101976.69;;;13.27;100.00
23321;BME280;33376;51.306;4.752;2023-05-11T00:54:29;101984.91;;;13.22;100.00
23321;BME280;33376;51.306;4.752;2023-05-11T00:56:55;101980.63;;;13.18;100.00
23321;BME280;33376;51.306;4.752;2023-05-11T00:59:20;101977.19;;;13.16;100.00
23321;BME280;33376;51.306;4.752;2023-05-11T01:01:45;101994.91;;;13.17;100.00
23321;BME280;33376;51.306;4.752;2023-05-11T01:04:10;101991.56;;;13.12;100.00
23321;BME280;33376;51.306;4.752;2023-05-11T01:06:59;102010.22;;;13.12;100.00
23321;BME280;33376;51.306;4.752;2023-05-11T01:09:38;101995.78;;;13.17;100.00
23321;BME280;33376;51.306;4.752;2023-05-11T01:12:17;102008.06;;;13.20;100.00
23321;BME280;33376;51.306;4.752;2023-05-11T01:15:08;102001.25;;;13.14;100.00
23321;BME280;33376;51.306;4.752;2023-05-11T01:17:35;102004.97;;;13.10;100.00
23321;BME280;33376;51.306;4.752;2023-05-11T01:20:02;102014.19;;;13.03;100.00
23321;BME280;33376;51.306;4.752;2023-05-11T01:22:33;102037.22;;;13.04;100.00
23321;BME280;33376;51.306;4.752;2023-05-11T01:25:05;102049.66;;;13.04;100.00
23321;BME280;33376;51.306;4.752;2023-05-11T01:32:36;102062.69;;;13.10;100.00
23321;BME280;33376;51.306;4.752;2023-05-11T01:35:10;102050.03;;;13.15;100.00
23321;BME280;33376;51.306;4.752;2023-05-11T01:37:37;102043.78;;;13.16;100.00
23321;BME280;33376;51.306;4.752;2023-05-11T01:40:09;102041.38;;;13.10;100.00
23321;BME280;33376;51.306;4.752;2023-05-11T01:42:41;102043.34;;;13.06;100.00
23321;BME280;33376;51.306;4.752;2023-05-11T01:45:08;102042.97;;;13.14;100.00
23321;BME280;33376;51.306;4.752;2023-05-11T01:47:35;102043.13;;;13.11;100.00
23321;BME280;33376;51.306;4.752;2023-05-11T01:50:01;102044.97;;;13.09;100.00
23321;BME280;33376;51.306;4.752;2023-05-11T01:52:29;102040.75;;;13.05;100.00
23321;BME280;33376;51.306;4.752;2023-05-11T01:54:56;102036.00;;;13.11;100.00
23321;BME280;33376;51.306;4.752;2023-05-11T01:57:22;102047.84;;;13.04;100.00
23321;BME280;33376;51.306;4.752;2023-05-11T01:59:47;102034.06;;;12.95;100.00
23321;BME280;33376;51.306;4.752;2023-05-11T02:02:13;102047.16;;;12.99;100.00
23321;BME280;33376;51.306;4.752;2023-05-11T02:04:39;102051.84;;;12.94;100.00
23321;BME280;33376;51.306;4.752;2023-05-11T02:07:05;102063.44;;;12.93;100.00
23321;BME280;33376;51.306;4.752;2023-05-11T02:09:32;102065.34;;;12.90;100.00
23321;BME280;33376;51.306;4.752;2023-05-11T02:11:58;102075.06;;;12.91;100.00
23321;BME280;33376;51.306;4.752;2023-05-11T02:14:24;102084.88;;;12.90;100.00
23321;BME280;33376;51.306;4.752;2023-05-11T02:16:52;102093.97;;;12.85;100.00
23321;BME280;33376;51.306;4.752;2023-05-11T02:19:19;102099.72;;;12.76;100.00
23321;BME280;33376;51.306;4.752;2023-05-11T02:21:45;102105.56;;;12.84;100.00
23321;BME280;33376;51.306;4.752;2023-05-11T02:24:11;102111.03;;;12.81;100.00
23321;BME280;33376;51.306;4.752;2023-05-11T02:26:37;102116.34;;;12.81;100.00
23321;BME280;33376;51.306;4.752;2023-05-11T02:29:02;102122.59;;;12.80;100.00
23321;BME280;33376;51.306;4.752;2023-05-11T02:31:28;102128.19;;;12.74;100.00
23321;BME280;33376;51.306;4.752;2023-05-11T02:33:55;102131.50;;;12.79;100.00
23321;BME280;33376;51.306;4.752;2023-05-11T02:36:23;102138.97;;;12.71;100.00
23321;BME280;33376;51.306;4.752;2023-05-11T02:38:54;102142.78;;;12.64;100.00
23321;BME280;33376;51.306;4.752;2023-05-11T02:41:24;102146.28;;;12.66;100.00
23321;BME280;33376;51.306;4.752;2023-05-11T02:43:50;102144.91;;;12.56;100.00
23321;BME280;33376;51.306;4.752;2023-05-11T02:46:19;102146.19;;;12.47;100.00
23321;BME280;33376;51.306;4.752;2023-05-11T02:48:46;102147.22;;;12.43;100.00
23321;BME280;33376;51.306;4.752;2023-05-11T02:51:13;102145.72;;;12.38;100.00
23321;BME280;33376;51.306;4.752;2023-05-11T02:53:40;102151.16;;;12.35;100.00
23321;BME280;33376;51.306;4.752;2023-05-11T02:56:07;102136.25;;;12.31;100.00
23321;BME280;33376;51.306;4.752;2023-05-11T02:58:33;102130.97;;;12.29;100.00
23321;BME280;33376;51.306;4.752;2023-05-11T03:00:58;102130.00;;;12.32;100.00
23321;BME280;33376;51.306;4.752;2023-05-11T03:03:24;102130.84;;;12.32;100.00
23321;BME280;33376;51.306;4.752;2023-05-11T03:05:49;102139.72;;;12.33;100.00
23321;BME280;33376;51.306;4.752;2023-05-11T03:08:15;102143.13;;;12.36;100.00
23321;BME280;33376;51.306;4.752;2023-05-11T03:10:40;102134.19;;;12.37;100.00
23321;BME280;33376;51.306;4.752;2023-05-11T03:13:06;102148.44;;;12.36;100.00
23321;BME280;33376;51.306;4.752;2023-05-11T03:15:33;102144.16;;;12.32;100.00
23321;BME280;33376;51.306;4.752;2023-05-11T03:17:59;102149.66;;;12.28;100.00
23321;BME280;33376;51.306;4.752;2023-05-11T03:20:25;102141.69;;;12.28;100.00
23321;BME280;33376;51.306;4.752;2023-05-11T03:22:51;102140.03;;;12.25;100.00
23321;BME280;33376;51.306;4.752;2023-05-11T03:25:17;102139.28;;;12.22;100.00
23321;BME280;33376;51.306;4.752;2023-05-11T03:27:42;102117.72;;;12.08;100.00
23321;BME280;33376;51.306;4.752;2023-05-11T03:30:10;102113.63;;;11.99;100.00
23321;BME280;33376;51.306;4.752;2023-05-11T03:32:35;102131.34;;;11.99;100.00
23321;BME280;33376;51.306;4.752;2023-05-11T03:35:01;102119.13;;;11.95;100.00
23321;BME280;33376;51.306;4.752;2023-05-11T03:37:26;102125.41;;;11.92;100.00
23321;BME280;33376;51.306;4.752;2023-05-11T03:39:55;102140.00;;;11.82;100.00
23321;BME280;33376;51.306;4.752;2023-05-11T03:42:32;102163.19;;;11.78;100.00
23321;BME280;33376;51.306;4.752;2023-05-11T03:45:04;102183.63;;;11.76;100.00
23321;BME280;33376;51.306;4.752;2023-05-11T03:47:31;102194.94;;;11.82;100.00
23321;BME280;33376;51.306;4.752;2023-05-11T03:49:57;102200.44;;;11.77;100.00
23321;BME280;33376;51.306;4.752;2023-05-11T03:52:25;102192.78;;;11.69;100.00
23321;BME280;33376;51.306;4.752;2023-05-11T03:54:54;102198.22;;;11.65;100.00
23321;BME280;33376;51.306;4.752;2023-05-11T03:57:19;102196.72;;;11.58;100.00
23321;BME280;33376;51.306;4.752;2023-05-11T03:59:45;102192.41;;;11.54;100.00
23321;BME280;33376;51.306;4.752;2023-05-11T04:02:10;102200.28;;;11.57;100.00
23321;BME280;33376;51.306;4.752;2023-05-11T04:04:35;102196.53;;;11.62;100.00
23321;BME280;33376;51.306;4.752;2023-05-11T04:07:00;102196.84;;;11.55;100.00
23321;BME280;33376;51.306;4.752;2023-05-11T04:09:26;102182.63;;;11.56;100.00
23321;BME280;33376;51.306;4.752;2023-05-11T04:11:51;102173.75;;;11.55;100.00
23321;BME280;33376;51.306;4.752;2023-05-11T04:14:17;102171.16;;;11.54;100.00
23321;BME280;33376;51.306;4.752;2023-05-11T04:16:43;102154.38;;;11.53;100.00
23321;BME280;33376;51.306;4.752;2023-05-11T04:19:08;102149.72;;;11.58;100.00
23321;BME280;33376;51.306;4.752;2023-05-11T04:21:33;102145.19;;;11.62;100.00
23321;BME280;33376;51.306;4.752;2023-05-11T04:23:59;102155.06;;;11.58;100.00
23321;BME280;33376;51.306;4.752;2023-05-11T04:26:25;102159.53;;;11.58;100.00
23321;BME280;33376;51.306;4.752;2023-05-11T04:28:50;102172.91;;;11.55;100.00
23321;BME280;33376;51.306;4.752;2023-05-11T04:31:16;102187.03;;;11.55;100.00
23321;BME280;33376;51.306;4.752;2023-05-11T04:33:41;102199.63;;;11.50;100.00
23321;BME280;33376;51.306;4.752;2023-05-11T04:36:06;102218.72;;;11.61;100.00
23321;BME280;33376;51.306;4.752;2023-05-11T04:38:31;102225.44;;;11.71;100.00
23321;BME280;33376;51.306;4.752;2023-05-11T04:40:57;102225.06;;;11.82;100.00
23321;BME280;33376;51.306;4.752;2023-05-11T04:43:27;102215.13;;;11.87;100.00
23321;BME280;33376;51.306;4.752;2023-05-11T04:45:52;102218.31;;;11.95;100.00
23321;BME280;33376;51.306;4.752;2023-05-11T04:48:17;102213.69;;;12.00;100.00
23321;BME280;33376;51.306;4.752;2023-05-11T04:50:43;102201.16;;;12.04;100.00
23321;BME280;33376;51.306;4.752;2023-05-11T04:53:08;102208.03;;;12.09;100.00
23321;BME280;33376;51.306;4.752;2023-05-11T04:55:34;102194.38;;;12.18;100.00
23321;BME280;33376;51.306;4.752;2023-05-11T04:57:59;102191.41;;;12.26;100.00
23321;BME280;33376;51.306;4.752;2023-05-11T05:00:25;102168.84;;;12.36;100.00
23321;BME280;33376;51.306;4.752;2023-05-11T05:02:50;102164.25;;;12.39;100.00
23321;BME280;33376;51.306;4.752;2023-05-11T05:05:16;102152.25;;;12.51;100.00
23321;BME280;33376;51.306;4.752;2023-05-11T05:07:41;102144.06;;;12.55;100.00
23321;BME280;33376;51.306;4.752;2023-05-11T05:10:06;102133.84;;;12.66;100.00
23321;BME280;33376;51.306;4.752;2023-05-11T05:12:36;102112.16;;;12.75;100.00
23321;BME280;33376;51.306;4.752;2023-05-11T05:15:02;102095.91;;;12.81;100.00
23321;BME280;33376;51.306;4.752;2023-05-11T05:17:28;102079.09;;;12.81;100.00
23321;BME280;33376;51.306;4.752;2023-05-11T05:19:53;102069.41;;;12.78;100.00
23321;BME280;33376;51.306;4.752;2023-05-11T05:22:18;102060.31;;;12.84;100.00
23321;BME280;33376;51.306;4.752;2023-05-11T05:24:46;102047.91;;;12.83;100.00
23321;BME280;33376;51.306;4.752;2023-05-11T05:27:12;102038.06;;;12.85;100.00
23321;BME280;33376;51.306;4.752;2023-05-11T05:29:37;102013.56;;;12.97;100.00
23321;BME280;33376;51.306;4.752;2023-05-11T05:32:02;102014.56;;;12.94;100.00
23321;BME280;33376;51.306;4.752;2023-05-11T05:34:27;102012.69;;;12.96;100.00
23321;BME280;33376;51.306;4.752;2023-05-11T05:36:53;102006.94;;;12.87;100.00
23321;BME280;33376;51.306;4.752;2023-05-11T05:39:18;101996.53;;;13.01;100.00
23321;BME280;33376;51.306;4.752;2023-05-11T05:41:43;101976.78;;;12.86;100.00
23321;BME280;33376;51.306;4.752;2023-05-11T05:44:10;101969.34;;;13.13;100.00
23321;BME280;33376;51.306;4.752;2023-05-11T05:46:35;101956.88;;;13.32;100.00
23321;BME280;33376;51.306;4.752;2023-05-11T05:49:00;101938.09;;;13.35;100.00
23321;BME280;33376;51.306;4.752;2023-05-11T05:51:26;101927.63;;;13.49;100.00
23321;BME280;33376;51.306;4.752;2023-05-11T05:53:51;101904.91;;;13.59;100.00
23321;BME280;33376;51.306;4.752;2023-05-11T05:56:16;101869.38;;;13.59;100.00
23321;BME280;33376;51.306;4.752;2023-05-11T05:58:42;101851.78;;;13.56;100.00
23321;BME280;33376;51.306;4.752;2023-05-11T06:01:07;101822.69;;;13.69;100.00
23321;BME280;33376;51.306;4.752;2023-05-11T06:03:32;101795.72;;;13.58;100.00
23321;BME280;33376;51.306;4.752;2023-05-11T06:05:58;101775.72;;;13.66;100.00
23321;BME280;33376;51.306;4.752;2023-05-11T06:08:23;101741.25;;;13.79;100.00
23321;BME280;33376;51.306;4.752;2023-05-11T06:10:48;101717.19;;;13.80;100.00
23321;BME280;33376;51.306;4.752;2023-05-11T06:13:14;101703.50;;;13.71;100.00
23321;BME280;33376;51.306;4.752;2023-05-11T06:15:39;101695.75;;;13.66;100.00
23321;BME280;33376;51.306;4.752;2023-05-11T06:18:04;101681.69;;;13.80;100.00
23321;BME280;33376;51.306;4.752;2023-05-11T06:20:30;101659.16;;;13.70;100.00
23321;BME280;33376;51.306;4.752;2023-05-11T06:22:55;101649.16;;;13.58;100.00
23321;BME280;33376;51.306;4.752;2023-05-11T06:25:20;101630.63;;;13.72;100.00
23321;BME280;33376;51.306;4.752;2023-05-11T06:27:46;101616.31;;;13.73;100.00
23321;BME280;33376;51.306;4.752;2023-05-11T06:30:11;101607.63;;;13.54;100.00
23321;BME280;33376;51.306;4.752;2023-05-11T06:32:36;101606.28;;;13.62;100.00
23321;BME280;33376;51.306;4.752;2023-05-11T06:35:02;101609.41;;;13.53;100.00
23321;BME280;33376;51.306;4.752;2023-05-11T06:37:28;101587.00;;;13.73;100.00
23321;BME280;33376;51.306;4.752;2023-05-11T06:39:54;101581.50;;;13.60;100.00
23321;BME280;33376;51.306;4.752;2023-05-11T06:42:20;101583.06;;;13.64;100.00
23321;BME280;33376;51.306;4.752;2023-05-11T06:44:47;101584.69;;;13.67;100.00
23321;BME280;33376;51.306;4.752;2023-05-11T06:47:12;101590.38;;;13.76;100.00
23321;BME280;33376;51.306;4.752;2023-05-11T06:49:38;101607.16;;;13.78;100.00
23321;BME280;33376;51.306;4.752;2023-05-11T06:52:03;101604.47;;;13.94;100.00
23321;BME280;33376;51.306;4.752;2023-05-11T06:54:28;101570.06;;;14.05;100.00
23321;BME280;33376;51.306;4.752;2023-05-11T06:56:54;101535.03;;;14.11;100.00
23321;BME280;33376;51.306;4.752;2023-05-11T06:59:19;101507.16;;;14.16;100.00
23321;BME280;33376;51.306;4.752;2023-05-11T07:01:44;101490.69;;;14.24;100.00
23321;BME280;33376;51.306;4.752;2023-05-11T07:04:10;101468.91;;;14.31;100.00
23321;BME280;33376;51.306;4.752;2023-05-11T07:06:35;101436.41;;;14.25;100.00
23321;BME280;33376;51.306;4.752;2023-05-11T07:09:01;101443.22;;;14.58;100.00
23321;BME280;33376;51.306;4.752;2023-05-11T07:11:27;101423.91;;;14.55;100.00
23321;BME280;33376;51.306;4.752;2023-05-11T07:13:54;101395.47;;;14.68;100.00
23321;BME280;33376;51.306;4.752;2023-05-11T07:16:19;101364.66;;;14.77;100.00
23321;BME280;33376;51.306;4.752;2023-05-11T07:18:45;101339.13;;;15.13;100.00
23321;BME280;33376;51.306;4.752;2023-05-11T07:21:10;101290.72;;;15.18;100.00
23321;BME280;33376;51.306;4.752;2023-05-11T07:23:35;101225.66;;;15.06;100.00
23321;BME280;33376;51.306;4.752;2023-05-11T07:26:00;101259.50;;;15.06;100.00
23321;BME280;33376;51.306;4.752;2023-05-11T07:28:28;101255.91;;;15.19;100.00
23321;BME280;33376;51.306;4.752;2023-05-11T07:30:53;101187.34;;;15.45;100.00
23321;BME280;33376;51.306;4.752;2023-05-11T07:33:18;101165.63;;;15.37;100.00
23321;BME280;33376;51.306;4.752;2023-05-11T07:35:43;101157.44;;;14.88;100.00
23321;BME280;33376;51.306;4.752;2023-05-11T07:38:09;101127.28;;;15.25;100.00
23321;BME280;33376;51.306;4.752;2023-05-11T07:40:35;101146.56;;;15.43;100.00
23321;BME280;33376;51.306;4.752;2023-05-11T07:43:01;101099.81;;;15.48;100.00
23321;BME280;33376;51.306;4.752;2023-05-11T07:45:26;101085.78;;;15.32;100.00
23321;BME280;33376;51.306;4.752;2023-05-11T07:47:51;101101.28;;;15.27;100.00
23321;BME280;33376;51.306;4.752;2023-05-11T07:50:17;101072.00;;;15.63;100.00
23321;BME280;33376;51.306;4.752;2023-05-11T07:52:42;101076.72;;;15.60;100.00
23321;BME280;33376;51.306;4.752;2023-05-11T07:55:08;101051.06;;;15.45;100.00
23321;BME280;33376;51.306;4.752;2023-05-11T07:57:33;101035.31;;;15.65;100.00
23321;BME280;33376;51.306;4.752;2023-05-11T07:59:59;101036.75;;;15.46;100.00
23321;BME280;33376;51.306;4.752;2023-05-11T08:02:24;101047.56;;;15.44;100.00
23321;BME280;33376;51.306;4.752;2023-05-11T08:04:49;101025.72;;;15.86;100.00
23321;BME280;33376;51.306;4.752;2023-05-11T08:07:18;101028.38;;;15.63;100.00
23321;BME280;33376;51.306;4.752;2023-05-11T08:09:43;101024.31;;;15.57;100.00
23321;BME280;33376;51.306;4.752;2023-05-11T08:12:08;101023.91;;;15.87;100.00
23321;BME280;33376;51.306;4.752;2023-05-11T08:14:33;101014.09;;;15.75;100.00
23321;BME280;33376;51.306;4.752;2023-05-11T08:16:59;101036.53;;;15.85;100.00
23321;BME280;33376;51.306;4.752;2023-05-11T08:19:24;101037.56;;;15.95;100.00
23321;BME280;33376;51.306;4.752;2023-05-11T08:21:50;101019.72;;;15.95;100.00
23321;BME280;33376;51.306;4.752;2023-05-11T08:24:15;101008.78;;;16.22;100.00
23321;BME280;33376;51.306;4.752;2023-05-11T08:26:41;100983.97;;;16.31;100.00
23321;BME280;33376;51.306;4.752;2023-05-11T08:29:07;100984.69;;;16.57;100.00
23321;BME280;33376;51.306;4.752;2023-05-11T08:31:32;100975.22;;;16.53;100.00
23321;BME280;33376;51.306;4.752;2023-05-11T08:33:57;100974.06;;;16.44;100.00
23321;BME280;33376;51.306;4.752;2023-05-11T08:36:22;100960.50;;;16.80;100.00
23321;BME280;33376;51.306;4.752;2023-05-11T08:38:48;100939.81;;;16.60;100.00
23321;BME280;33376;51.306;4.752;2023-05-11T08:41:13;100964.91;;;16.70;100.00
23321;BME280;33376;51.306;4.752;2023-05-11T08:43:39;100948.59;;;16.73;100.00
23321;BME280;33376;51.306;4.752;2023-05-11T08:46:05;100927.06;;;16.75;100.00
23321;BME280;33376;51.306;4.752;2023-05-11T08:48:33;100915.09;;;16.79;100.00
23321;BME280;33376;51.306;4.752;2023-05-11T08:50:58;100933.03;;;17.00;100.00
23321;BME280;33376;51.306;4.752;2023-05-11T08:53:24;100890.41;;;16.86;100.00
23321;BME280;33376;51.306;4.752;2023-05-11T08:55:49;100898.78;;;16.82;100.00
23321;BME280;33376;51.306;4.752;2023-05-11T08:58:16;100872.25;;;16.68;100.00
23321;BME280;33376;51.306;4.752;2023-05-11T09:00:45;100883.66;;;16.26;100.00
23321;BME280;33376;51.306;4.752;2023-05-11T09:03:11;100873.72;;;16.83;100.00
23321;BME280;33376;51.306;4.752;2023-05-11T09:05:37;100876.19;;;16.64;100.00
23321;BME280;33376;51.306;4.752;2023-05-11T09:08:03;100866.53;;;16.72;100.00
23321;BME280;33376;51.306;4.752;2023-05-11T09:10:30;100872.34;;;16.44;100.00
23321;BME280;33376;51.306;4.752;2023-05-11T09:12:56;100879.25;;;16.36;100.00
23321;BME280;33376;51.306;4.752;2023-05-11T09:15:21;100869.25;;;16.16;100.00
23321;BME280;33376;51.306;4.752;2023-05-11T09:17:47;100883.03;;;16.22;100.00
23321;BME280;33376;51.306;4.752;2023-05-11T09:20:12;100882.66;;;16.27;100.00
23321;BME280;33376;51.306;4.752;2023-05-11T09:22:41;100864.69;;;16.40;100.00
23321;BME280;33376;51.306;4.752;2023-05-11T09:25:10;100865.72;;;16.50;100.00
23321;BME280;33376;51.306;4.752;2023-05-11T09:27:39;100774.81;;;16.70;100.00
23321;BME280;33376;51.306;4.752;2023-05-11T09:30:11;100711.84;;;16.76;100.00
23321;BME280;33376;51.306;4.752;2023-05-11T09:32:56;100699.34;;;16.65;100.00
23321;BME280;33376;51.306;4.752;2023-05-11T09:35:28;100708.75;;;16.91;100.00
23321;BME280;33376;51.306;4.752;2023-05-11T09:38:04;100718.50;;;16.92;100.00
23321;BME280;33376;51.306;4.752;2023-05-11T09:40:30;100725.19;;;17.29;100.00
23321;BME280;33376;51.306;4.752;2023-05-11T09:42:56;100744.81;;;17.50;100.00
23321;BME280;33376;51.306;4.752;2023-05-11T09:47:59;100719.19;;;17.58;100.00
23321;BME280;33376;51.306;4.752;2023-05-11T09:50:28;100717.31;;;17.99;100.00
23321;BME280;33376;51.306;4.752;2023-05-11T09:52:55;100728.28;;;17.87;100.00
23321;BME280;33376;51.306;4.752;2023-05-11T09:55:21;100727.31;;;18.57;100.00
23321;BME280;33376;51.306;4.752;2023-05-11T09:57:51;100747.41;;;18.33;100.00
23321;BME280;33376;51.306;4.752;2023-05-11T10:00:17;100756.81;;;18.18;100.00
23321;BME280;33376;51.306;4.752;2023-05-11T10:02:42;100772.03;;;18.38;100.00
23321;BME280;33376;51.306;4.752;2023-05-11T10:05:10;100787.97;;;18.60;100.00
23321;BME280;33376;51.306;4.752;2023-05-11T10:07:37;100803.88;;;18.82;100.00
23321;BME280;33376;51.306;4.752;2023-05-11T10:10:03;100821.13;;;18.79;100.00
23321;BME280;33376;51.306;4.752;2023-05-11T10:12:29;100831.53;;;18.63;100.00
23321;BME280;33376;51.306;4.752;2023-05-11T10:15:07;100851.13;;;18.94;100.00
23321;BME280;33376;51.306;4.752;2023-05-11T10:17:33;100864.03;;;19.87;100.00
23321;BME280;33376;51.306;4.752;2023-05-11T10:19:59;100932.97;;;19.50;100.00
23321;BME280;33376;51.306;4.752;2023-05-11T10:22:25;100957.81;;;20.11;100.00
23321;BME280;33376;51.306;4.752;2023-05-11T10:24:51;100948.44;;;20.63;100.00
23321;BME280;33376;51.306;4.752;2023-05-11T10:27:17;101057.03;;;21.11;100.00
23321;BME280;33376;51.306;4.752;2023-05-11T10:29:43;101071.78;;;21.16;100.00
23321;BME280;33376;51.306;4.752;2023-05-11T10:32:09;101106.41;;;20.83;100.00
23321;BME280;33376;51.306;4.752;2023-05-11T10:34:35;101149.53;;;20.54;100.00
23321;BME280;33376;51.306;4.752;2023-05-11T10:37:05;101161.44;;;20.52;100.00
23321;BME280;33376;51.306;4.752;2023-05-11T10:39:31;101154.22;;;20.81;100.00
23321;BME280;33376;51.306;4.752;2023-05-11T10:47:16;101236.72;;;21.31;100.00
23321;BME280;33376;51.306;4.752;2023-05-11T10:52:15;101244.19;;;22.21;100.00
23321;BME280;33376;51.306;4.752;2023-05-11T10:54:46;101279.44;;;21.64;100.00
23321;BME280;33376;51.306;4.752;2023-05-11T11:02:33;101310.78;;;20.28;100.00
23321;BME280;33376;51.306;4.752;2023-05-11T11:04:58;101298.69;;;20.44;100.00
23321;BME280;33376;51.306;4.752;2023-05-11T11:07:29;101284.97;;;21.15;100.00
23321;BME280;33376;51.306;4.752;2023-05-11T11:09:56;101280.66;;;22.44;100.00
23321;BME280;33376;51.306;4.752;2023-05-11T11:12:25;101359.69;;;23.47;100.00
23321;BME280;33376;51.306;4.752;2023-05-11T11:19:44;101522.06;;;22.35;100.00
23321;BME280;33376;51.306;4.752;2023-05-11T11:24:53;101545.94;;;22.78;100.00
23321;BME280;33376;51.306;4.752;2023-05-11T11:27:19;101529.88;;;22.67;100.00
23321;BME280;33376;51.306;4.752;2023-05-11T11:30:37;101454.75;;;23.44;100.00
23321;BME280;33376;51.306;4.752;2023-05-11T11:33:30;101421.22;;;24.07;100.00
23321;BME280;33376;51.306;4.752;2023-05-11T11:35:44;101476.84;;;23.66;100.00
23321;BME280;33376;51.306;4.752;2023-05-11T11:38:11;101446.78;;;22.69;100.00
23321;BME280;33376;51.306;4.752;2023-05-11T11:40:40;101521.91;;;22.08;100.00
23321;BME280;33376;51.306;4.752;2023-05-11T11:43:15;101604.94;;;21.36;100.00
23321;BME280;33376;51.306;4.752;2023-05-11T11:45:53;101711.19;;;21.24;100.00
23321;BME280;33376;51.306;4.752;2023-05-11T11:48:37;101601.28;;;21.47;100.00
23321;BME280;33376;51.306;4.752;2023-05-11T11:51:08;101493.31;;;22.06;100.00
23321;BME280;33376;51.306;4.752;2023-05-11T12:01:05;101401.94;;;23.03;100.00
23321;BME280;33376;51.306;4.752;2023-05-11T12:03:31;101403.47;;;23.15;100.00
23321;BME280;33376;51.306;4.752;2023-05-11T12:05:58;101457.47;;;22.61;100.00
23321;BME280;33376;51.306;4.752;2023-05-11T12:08:24;101498.06;;;21.73;100.00
23321;BME280;33376;51.306;4.752;2023-05-11T12:10:53;101563.63;;;20.95;100.00
23321;BME280;33376;51.306;4.752;2023-05-11T12:13:18;101652.00;;;21.02;100.00
23321;BME280;33376;51.306;4.752;2023-05-11T12:15:44;101578.56;;;21.49;100.00
23321;BME280;33376;51.306;4.752;2023-05-11T12:18:20;101533.72;;;22.64;100.00
23321;BME280;33376;51.306;4.752;2023-05-11T12:20:45;101508.28;;;23.50;100.00
23321;BME280;33376;51.306;4.752;2023-05-11T12:23:10;101446.63;;;24.06;100.00
23321;BME280;33376;51.306;4.752;2023-05-11T12:25:38;101337.59;;;24.37;100.00
23321;BME280;33376;51.306;4.752;2023-05-11T12:28:03;101268.56;;;23.38;100.00
23321;BME280;33376;51.306;4.752;2023-05-11T12:30:29;101311.16;;;24.06;100.00
23321;BME280;33376;51.306;4.752;2023-05-11T12:32:55;101353.94;;;23.85;100.00
23321;BME280;33376;51.306;4.752;2023-05-11T12:35:30;101418.03;;;23.32;100.00
23321;BME280;33376;51.306;4.752;2023-05-11T12:37:57;101481.25;;;22.00;100.00
23321;BME280;33376;51.306;4.752;2023-05-11T12:40:23;101518.63;;;22.05;100.00
23321;BME280;33376;51.306;4.752;2023-05-11T12:42:49;101508.84;;;21.64;100.00
23321;BME280;33376;51.306;4.752;2023-05-11T12:45:15;101601.44;;;20.84;100.00
23321;BME280;33376;51.306;4.752;2023-05-11T12:47:41;101701.22;;;20.30;100.00
23321;BME280;33376;51.306;4.752;2023-05-11T12:50:07;101757.41;;;20.23;100.00
23321;BME280;33376;51.306;4.752;2023-05-11T12:52:33;101783.75;;;20.31;100.00
23321;BME280;33376;51.306;4.752;2023-05-11T12:54:58;101739.41;;;20.13;100.00
23321;BME280;33376;51.306;4.752;2023-05-11T12:57:25;101761.31;;;20.08;100.00
23321;BME280;33376;51.306;4.752;2023-05-11T13:00:06;101792.13;;;19.93;100.00
23321;BME280;33376;51.306;4.752;2023-05-11T13:02:32;101732.19;;;20.47;100.00
23321;BME280;33376;51.306;4.752;2023-05-11T13:04:58;101648.28;;;21.03;100.00
23321;BME280;33376;51.306;4.752;2023-05-11T13:07:24;101541.97;;;21.26;100.00
23321;BME280;33376;51.306;4.752;2023-05-11T13:09:56;101551.78;;;21.67;100.00
23321;BME280;33376;51.306;4.752;2023-05-11T13:12:22;101492.03;;;22.48;100.00
23321;BME280;33376;51.306;4.752;2023-05-11T13:14:49;101407.19;;;23.04;100.00